Terminal Aerodrome Forecast
Issued by NWS

Home | Current Version | Previous Version | Text Only | Print | Product List | Glossary On
Versions: 1 2 3 4 5 6 7 8 9 10 11 12 13 14 15 16 17 18 19 20 21
473
FTUS43 KLSX 281124
TAFCPS
TAF
KCPS 281124Z 2812/2912 29006KT P6SM BKN150
     FM281400 33009KT P6SM BKN250
     FM281700 34012G18KT P6SM SCT050
     FM290400 33008KT P6SM SCT090=

USA.gov is the U.S. government's official web portal to all federal, state and local government web resources and services.